Time;durP1;ratioP1;P1;durP2;ratioP2;P2;SDS_P1;SDS_P2;PMS_P1;PMS_P2;Temp;Humidity;BMP_temperature;BMP_pressure;BME280_temperature;BME280_humidity;BME280_pressure;Samples;Min_cycle;Max_cycle;Signal;HPM_P1;HPM_P2
2021/07/22 00:00:37;;;;;;;11.03;8.40;;;;;;;13.16;70.25;100806.67;2097505;82;21038;-71
2021/07/22 00:03:39;;;;;;;12.80;9.03;;;;;;;13.14;70.26;100806.00;2103538;82;21075;-74
2021/07/22 00:06:40;;;;;;;11.95;8.78;;;;;;;13.15;70.44;100812.50;2102264;81;21159;-72
2021/07/22 00:09:42;;;;;;;11.95;7.67;;;;;;;13.13;70.51;100811.00;2105362;82;21097;-80
2021/07/22 00:12:44;;;;;;;12.73;8.30;;;;;;;13.14;70.53;100809.48;2113778;81;21061;-71
2021/07/22 00:15:46;;;;;;;13.78;9.48;;;;;;;13.11;70.68;100812.48;2110415;82;21780;-71
2021/07/22 00:18:47;;;;;;;13.95;9.48;;;;;;;13.08;71.02;100810.66;2099944;81;21156;-71
2021/07/22 00:21:49;;;;;;;12.93;7.90;;;;;;;13.01;71.27;100810.00;2111772;81;21037;-74
2021/07/22 00:24:50;;;;;;;10.60;7.72;;;;;;;12.98;71.29;100811.66;2100812;82;21129;-72
2021/07/22 00:27:52;;;;;;;12.07;7.33;;;;;;;13.00;71.20;100810.98;2094260;81;21105;-74
2021/07/22 00:30:56;;;;;;;11.88;7.22;;;;;;;13.01;71.24;100815.33;2101219;81;21078;-74
2021/07/22 00:33:57;;;;;;;12.55;8.63;;;;;;;13.05;71.24;100816.33;2116996;81;21134;-72
2021/07/22 00:36:59;;;;;;;13.70;8.60;;;;;;;13.05;71.36;100813.66;2084822;82;21073;-73
2021/07/22 00:40:01;;;;;;;11.97;7.60;;;;;;;13.08;71.54;100812.00;2111465;81;21124;-71
2021/07/22 00:43:04;;;;;;;13.83;9.15;;;;;;;13.09;71.41;100810.52;2119720;81;21078;-77
2021/07/22 00:46:05;;;;;;;13.43;9.83;;;;;;;13.11;71.43;100809.83;2073301;83;21069;-73
2021/07/22 00:49:11;;;;;;;17.32;9.03;;;;;;;13.07;71.68;100807.17;2101244;81;21105;-72
2021/07/22 00:52:13;;;;;;;11.68;8.75;;;;;;;13.07;71.82;100801.84;2111052;81;21038;-70
2021/07/22 00:55:18;;;;;;;12.53;8.38;;;;;;;13.07;71.81;100803.68;2110913;82;21104;-74
2021/07/22 00:58:20;;;;;;;14.33;8.60;;;;;;;13.07;71.73;100803.17;2124607;81;21105;-70
2021/07/22 01:01:21;;;;;;;14.47;9.00;;;;;;;13.04;71.68;100806.17;2111657;81;21650;-82
2021/07/22 01:04:23;;;;;;;15.10;8.55;;;;;;;12.99;71.77;100799.17;2076213;84;21048;-72
2021/07/22 01:07:24;;;;;;;13.03;8.40;;;;;;;12.98;71.68;100796.19;2067031;83;21053;-71
2021/07/22 01:10:26;;;;;;;10.88;7.42;;;;;;;12.97;71.72;100793.17;2084092;83;21074;-71
2021/07/22 01:13:28;;;;;;;11.55;8.30;;;;;;;12.92;71.67;100803.48;2067252;83;21833;-72
2021/07/22 01:16:30;;;;;;;11.68;7.87;;;;;;;12.91;71.82;100793.33;2048968;84;21140;-72
2021/07/22 01:19:31;;;;;;;12.80;8.90;;;;;;;12.89;71.65;100793.98;2038530;85;21113;-73
2021/07/22 01:22:33;;;;;;;11.78;7.25;;;;;;;12.86;71.75;100794.32;2018931;85;21105;-74
2021/07/22 01:25:35;;;;;;;11.05;8.10;;;;;;;12.84;71.78;100797.67;2117803;81;21094;-71
2021/07/22 01:28:37;;;;;;;14.83;7.80;;;;;;;12.84;72.00;100801.67;2108728;82;20999;-78
2021/07/22 01:31:38;;;;;;;12.60;7.80;;;;;;;12.86;71.96;100800.16;2106413;81;21108;-71
2021/07/22 01:34:40;;;;;;;10.55;8.60;;;;;;;12.88;72.19;100798.99;2112182;81;21138;-75
2021/07/22 01:37:43;;;;;;;11.35;8.73;;;;;;;12.84;72.46;100800.34;2085093;82;21105;-71
2021/07/22 01:40:45;;;;;;;9.30;7.30;;;;;;;12.85;72.39;100799.83;2112109;81;21076;-80
2021/07/22 01:43:47;;;;;;;13.53;9.85;;;;;;;12.85;72.49;100801.16;2105404;82;21663;-70
2021/07/22 01:46:49;;;;;;;13.95;8.98;;;;;;;12.86;72.62;100804.14;2109656;82;21064;-72
2021/07/22 01:49:51;;;;;;;15.32;9.58;;;;;;;12.83;72.56;100803.15;2106625;81;21748;-73
2021/07/22 01:52:53;;;;;;;11.65;9.15;;;;;;;12.83;72.76;100798.65;2123280;81;21098;-71
2021/07/22 01:55:54;;;;;;;19.50;9.78;;;;;;;12.82;72.91;100797.50;2110945;82;21388;-76
2021/07/22 01:58:58;;;;;;;13.32;7.87;;;;;;;12.80;72.93;100797.66;2118167;81;21644;-71
2021/07/22 02:02:00;;;;;;;10.85;7.90;;;;;;;12.81;72.98;100797.14;2121789;82;21674;-71
2021/07/22 02:05:07;;;;;;;14.00;6.65;;;;;;;12.79;73.01;100802.15;2106065;82;21065;-71
2021/07/22 02:08:09;;;;;;;14.90;8.95;;;;;;;12.83;73.01;100793.83;2094574;81;21365;-81
2021/07/22 02:11:11;;;;;;;17.42;9.45;;;;;;;12.84;73.38;100797.67;2111569;82;21120;-75
2021/07/22 02:14:13;;;;;;;16.45;8.33;;;;;;;12.87;73.74;100794.67;2105289;81;21132;-71
2021/07/22 02:17:18;;;;;;;15.40;8.48;;;;;;;12.92;73.68;100797.69;2103221;81;21117;-72
2021/07/22 02:20:21;;;;;;;17.02;9.35;;;;;;;12.93;73.68;100798.00;2112314;81;21057;-74
2021/07/22 02:23:24;;;;;;;14.75;9.73;;;;;;;12.97;73.82;100803.32;2100265;82;21151;-71
2021/07/22 02:26:34;;;;;;;14.60;9.20;;;;;;;12.97;73.94;100798.50;2102402;81;21930;-75
2021/07/22 02:29:36;;;;;;;11.00;9.15;;;;;;;12.96;74.10;100800.84;2114283;81;21113;-72
2021/07/22 02:32:38;;;;;;;14.38;9.95;;;;;;;13.02;74.21;100798.84;2113417;82;21022;-75
2021/07/22 02:35:40;;;;;;;14.15;9.78;;;;;;;13.05;74.26;100801.67;2112494;81;21083;-72
2021/07/22 02:38:41;;;;;;;14.83;9.55;;;;;;;13.08;74.32;100801.34;2108246;81;21061;-71
2021/07/22 02:41:43;;;;;;;12.70;10.08;;;;;;;13.09;74.39;100801.19;2095468;82;21125;-75
2021/07/22 02:44:45;;;;;;;12.95;9.23;;;;;;;13.07;74.35;100806.34;2083948;83;21007;-72
2021/07/22 02:47:52;;;;;;;11.30;8.53;;;;;;;13.01;74.49;100804.67;2111424;82;21145;-73
2021/07/22 02:50:54;;;;;;;18.73;10.20;;;;;;;12.99;74.63;100804.00;2108404;81;21165;-75
2021/07/22 02:53:56;;;;;;;17.60;9.50;;;;;;;13.05;74.88;100806.50;2081885;82;21141;-72
2021/07/22 02:56:58;;;;;;;14.40;9.88;;;;;;;13.09;74.89;100812.31;2106215;82;21031;-70
2021/07/22 03:00:01;;;;;;;13.32;9.30;;;;;;;13.10;74.99;100816.66;2110538;81;21084;-74
2021/07/22 03:03:03;;;;;;;16.25;10.32;;;;;;;13.12;75.11;100815.98;2111845;81;21620;-74
2021/07/22 03:06:05;;;;;;;18.40;9.65;;;;;;;13.19;75.34;100816.48;2122381;80;21084;-82
2021/07/22 03:09:09;;;;;;;13.53;9.15;;;;;;;13.25;75.39;100813.66;2111952;81;21066;-70
2021/07/22 03:12:12;;;;;;;12.10;9.50;;;;;;;13.32;75.53;100812.50;2092595;82;21059;-73
2021/07/22 03:15:15;;;;;;;14.20;9.20;;;;;;;13.37;75.54;100807.00;2110570;81;21153;-72
2021/07/22 03:18:19;;;;;;;13.58;9.60;;;;;;;13.42;75.69;100800.67;2120382;82;21588;-70
2021/07/22 03:21:20;;;;;;;12.45;8.60;;;;;;;13.51;75.76;100807.33;2100706;82;21608;-72
2021/07/22 03:24:25;;;;;;;12.75;9.55;;;;;;;13.57;75.84;100813.31;2111995;82;21101;-72
2021/07/22 03:27:27;;;;;;;14.33;8.78;;;;;;;13.60;75.79;100814.30;2113985;82;21119;-78
2021/07/22 03:30:30;;;;;;;16.27;9.45;;;;;;;13.65;75.88;100815.45;2063465;84;21566;-83
2021/07/22 03:33:49;;;;;;;19.40;9.85;;;;;;;13.68;75.83;100814.29;2022370;85;21069;-72
2021/07/22 03:36:52;;;;;;;16.10;9.85;;;;;;;13.69;75.84;100813.31;2066989;83;21125;-72
2021/07/22 03:39:55;;;;;;;17.45;9.35;;;;;;;13.71;75.94;100815.28;2095015;83;21106;-72
2021/07/22 03:42:57;;;;;;;14.80;9.65;;;;;;;13.76;76.05;100818.78;2093749;82;21030;-76
2021/07/22 03:46:00;;;;;;;16.27;8.88;;;;;;;13.80;76.10;100822.28;2115044;81;21112;-72
2021/07/22 03:49:03;;;;;;;12.15;9.35;;;;;;;13.83;76.12;100819.27;2106505;82;21114;-75
2021/07/22 03:52:05;;;;;;;14.10;9.93;;;;;;;13.83;76.08;100823.27;2071396;82;21068;-76
2021/07/22 03:55:10;;;;;;;17.92;9.83;;;;;;;13.84;76.21;100822.27;2103883;81;21041;-75
2021/07/22 03:58:16;;;;;;;11.85;9.68;;;;;;;13.89;76.29;100823.92;2102875;82;21100;-71
2021/07/22 04:01:22;;;;;;;17.50;9.88;;;;;;;13.97;76.36;100826.25;2117802;81;21593;-81
2021/07/22 04:04:24;;;;;;;12.90;8.98;;;;;;;14.02;76.49;100819.86;2109405;81;21136;-74
2021/07/22 04:07:27;;;;;;;14.10;10.25;;;;;;;14.09;76.56;100819.52;2104623;81;21058;-76
2021/07/22 04:10:30;;;;;;;14.05;10.40;;;;;;;14.14;76.64;100822.52;2103570;81;22383;-74
2021/07/22 04:13:50;;;;;;;13.58;9.90;;;;;;;14.19;76.66;100817.49;2073324;83;21704;-73
2021/07/22 04:16:53;;;;;;;15.53;10.68;;;;;;;14.26;76.77;100821.11;2107015;81;21159;-73
2021/07/22 04:19:59;;;;;;;17.02;12.30;;;;;;;14.26;76.68;100819.78;2104771;82;21033;-72
2021/07/22 04:23:17;;;;;;;16.55;11.05;;;;;;;14.28;76.69;100816.95;2109874;82;21081;-80
2021/07/22 04:26:21;;;;;;;16.07;11.03;;;;;;;14.37;76.67;100819.08;2094367;82;21620;-72
2021/07/22 04:29:24;;;;;;;16.73;10.88;;;;;;;14.41;76.67;100817.70;2107701;81;21088;-72
2021/07/22 04:32:27;;;;;;;14.38;10.50;;;;;;;14.47;76.60;100822.34;2103846;82;21027;-72
2021/07/22 04:35:33;;;;;;;14.70;10.45;;;;;;;14.50;76.70;100817.98;2118849;82;21131;-75
2021/07/22 04:38:52;;;;;;;19.62;10.50;;;;;;;14.56;76.87;100814.16;2059753;83;21104;-75
2021/07/22 04:41:55;;;;;;;13.65;10.65;;;;;;;14.64;76.86;100817.30;2041492;82;21062;-72
2021/07/22 04:44:59;;;;;;;12.98;10.10;;;;;;;14.67;76.90;100814.27;2080316;81;21086;-73
2021/07/22 04:48:19;;;;;;;13.70;10.47;;;;;;;14.71;76.95;100812.89;2121748;81;21045;-74
2021/07/22 04:51:22;;;;;;;17.15;10.35;;;;;;;14.74;77.04;100817.88;2114690;81;21676;-74
2021/07/22 04:54:25;;;;;;;16.80;10.15;;;;;;;14.82;77.06;100814.84;2093826;82;21104;-74
2021/07/22 04:57:27;;;;;;;14.70;10.60;;;;;;;14.82;77.07;100815.66;2103827;82;21120;-71
2021/07/22 05:00:30;;;;;;;17.32;10.70;;;;;;;14.86;77.12;100820.97;2051448;84;21154;-79
2021/07/22 05:03:33;;;;;;;13.78;9.90;;;;;;;14.87;77.10;100821.83;2118110;81;21922;-74
2021/07/22 05:06:35;;;;;;;14.87;10.28;;;;;;;14.90;77.19;100821.47;2122146;82;21088;-71
2021/07/22 05:09:44;;;;;;;15.30;10.53;;;;;;;14.96;77.27;100826.09;2124778;81;21072;-76
2021/07/22 05:13:01;;;;;;;14.58;9.60;;;;;;;15.02;77.28;100813.34;2111646;81;21118;-71
2021/07/22 05:16:21;;;;;;;16.40;9.63;;;;;;;15.06;77.35;100813.30;2103821;82;21456;-71
2021/07/22 05:19:24;;;;;;;15.83;11.15;;;;;;;15.10;77.30;100819.14;2086421;81;21133;-72
2021/07/22 05:22:27;;;;;;;16.80;10.25;;;;;;;15.14;77.36;100817.25;2101597;82;22579;-71
2021/07/22 05:25:31;;;;;;;17.80;10.93;;;;;;;15.20;77.33;100821.91;2105068;82;21030;-73
2021/07/22 05:28:41;;;;;;;15.93;11.33;;;;;;;15.27;77.31;100819.33;2106917;82;21077;-73
2021/07/22 05:31:50;;;;;;;14.53;10.78;;;;;;;15.33;77.36;100818.60;2117020;81;21050;-79
2021/07/22 05:34:53;;;;;;;14.75;10.85;;;;;;;15.40;77.36;100818.70;2099275;82;21438;-72
2021/07/22 05:38:09;;;;;;;15.48;11.08;;;;;;;15.43;77.28;100816.52;2107110;81;21067;-74
2021/07/22 05:41:11;;;;;;;20.43;10.85;;;;;;;15.50;77.29;100811.26;2121085;82;21078;-71
2021/07/22 05:44:12;;;;;;;14.80;10.93;;;;;;;15.54;77.34;100813.05;2115464;82;21144;-72
2021/07/22 05:47:14;;;;;;;20.17;11.68;;;;;;;15.54;77.49;100817.92;2105489;81;21061;-73
2021/07/22 05:50:15;;;;;;;14.87;10.90;;;;;;;15.60;77.64;100819.86;2105613;82;21544;-72
2021/07/22 05:53:18;;;;;;;14.45;10.90;;;;;;;15.64;77.70;100817.13;2108435;82;20990;-72
2021/07/22 05:56:19;;;;;;;18.17;11.63;;;;;;;15.71;77.79;100820.44;2086265;82;21069;-72
2021/07/22 05:59:21;;;;;;;14.95;11.18;;;;;;;15.78;77.85;100822.72;2116641;81;21575;-74
2021/07/22 06:02:22;;;;;;;17.92;12.15;;;;;;;15.84;77.81;100820.64;2113692;81;21082;-72
2021/07/22 06:05:24;;;;;;;19.23;11.20;;;;;;;15.88;77.75;100821.92;2109192;81;21108;-81
2021/07/22 06:08:25;;;;;;;17.65;11.15;;;;;;;15.94;77.74;100825.22;2116302;82;21128;-72
2021/07/22 06:11:26;;;;;;;18.62;11.10;;;;;;;15.99;77.71;100821.45;2089552;82;22270;-76
2021/07/22 06:14:28;;;;;;;16.93;12.55;;;;;;;16.06;77.69;100825.58;2115318;81;21102;-72
2021/07/22 06:17:29;;;;;;;17.92;12.60;;;;;;;16.12;77.64;100824.84;2114105;81;20961;-74
2021/07/22 06:20:32;;;;;;;19.12;12.15;;;;;;;16.18;77.50;100825.94;2119076;81;21082;-79
2021/07/22 06:23:34;;;;;;;26.30;13.30;;;;;;;16.21;77.46;100820.20;2105134;81;21066;-78
2021/07/22 06:26:36;;;;;;;18.85;12.37;;;;;;;16.29;77.44;100825.47;2100631;82;21041;-76
2021/07/22 06:29:37;;;;;;;17.50;13.05;;;;;;;16.34;77.44;100826.56;2108889;82;21555;-74
2021/07/22 06:32:39;;;;;;;17.15;12.45;;;;;;;16.40;77.47;100829.00;2112366;81;21090;-75
2021/07/22 06:35:41;;;;;;;21.10;12.73;;;;;;;16.45;77.39;100831.13;2113538;81;21005;-72
2021/07/22 06:38:42;;;;;;;16.42;11.48;;;;;;;16.50;77.38;100826.87;2119655;81;21124;-77
2021/07/22 06:41:44;;;;;;;15.32;11.93;;;;;;;16.55;77.26;100828.45;2119883;81;21010;-76
2021/07/22 06:44:45;;;;;;;17.25;10.98;;;;;;;16.64;77.18;100836.38;2112604;81;21069;-77
2021/07/22 06:47:47;;;;;;;13.88;11.48;;;;;;;16.68;77.19;100829.63;2101359;82;21133;-76
2021/07/22 06:50:49;;;;;;;16.93;11.93;;;;;;;16.73;77.13;100825.37;2095625;81;21125;-75
2021/07/22 06:53:52;;;;;;;13.70;10.48;;;;;;;16.79;77.16;100825.15;2098111;82;21172;-75
2021/07/22 06:56:53;;;;;;;14.07;10.15;;;;;;;16.83;77.07;100822.39;2118186;81;21041;-80
2021/07/22 06:59:55;;;;;;;18.05;10.20;;;;;;;16.88;76.79;100825.34;2117467;81;21116;-76
2021/07/22 07:02:57;;;;;;;15.43;10.98;;;;;;;16.90;76.74;100825.98;2113422;82;21619;-78
2021/07/22 07:05:58;;;;;;;15.15;10.53;;;;;;;16.97;76.57;100828.20;2121089;81;21026;-79
2021/07/22 07:09:00;;;;;;;14.98;12.28;;;;;;;17.03;76.54;100825.27;2120214;81;21034;-75
2021/07/22 07:12:02;;;;;;;15.28;11.20;;;;;;;17.09;76.40;100827.20;2103300;81;21107;-81
2021/07/22 07:15:05;;;;;;;16.67;11.18;;;;;;;17.15;76.25;100825.61;2106349;81;21079;-76
2021/07/22 07:18:06;;;;;;;16.00;11.43;;;;;;;17.18;76.15;100827.90;2102116;82;21085;-75
2021/07/22 07:21:08;;;;;;;25.77;12.63;;;;;;;17.21;75.95;100827.52;2118739;81;21030;-76
2021/07/22 07:24:10;;;;;;;19.42;11.80;;;;;;;17.28;75.96;100824.88;2120503;81;21073;-76
2021/07/22 07:27:11;;;;;;;15.72;10.98;;;;;;;17.35;75.85;100829.28;2127016;81;21159;-73
2021/07/22 07:30:13;;;;;;;17.48;11.35;;;;;;;17.42;75.84;100826.64;2122361;81;21079;-75
2021/07/22 07:33:15;;;;;;;15.50;11.88;;;;;;;17.52;75.94;100818.27;2102346;81;21056;-77
2021/07/22 07:36:17;;;;;;;20.02;11.00;;;;;;;17.58;75.88;100814.28;2119375;81;21592;-80
2021/07/22 07:39:18;;;;;;;15.23;10.65;;;;;;;17.63;75.79;100823.92;2105150;81;21054;-75
2021/07/22 07:42:20;;;;;;;21.30;10.53;;;;;;;17.72;75.56;100814.38;2108967;81;21133;-76
2021/07/22 07:45:21;;;;;;;14.78;9.78;;;;;;;17.80;75.44;100810.23;2116538;81;21073;-79
2021/07/22 07:48:23;;;;;;;20.05;10.95;;;;;;;17.86;75.14;100820.17;2105621;82;21758;-74
2021/07/22 07:51:24;;;;;;;15.03;10.18;;;;;;;17.91;75.09;100823.92;2123361;81;21076;-73
2021/07/22 07:54:26;;;;;;;15.75;10.18;;;;;;;17.98;74.93;100824.47;2111330;81;21106;-76
2021/07/22 07:57:28;;;;;;;19.95;11.12;;;;;;;18.01;74.83;100822.73;2121460;81;21731;-78
2021/07/22 08:00:29;;;;;;;18.85;10.63;;;;;;;18.13;74.83;100823.81;2093339;82;21056;-76
2021/07/22 08:03:31;;;;;;;16.42;10.03;;;;;;;18.26;74.45;100821.20;2110617;81;21419;-76
2021/07/22 08:06:33;;;;;;;16.05;9.48;;;;;;;18.33;74.10;100818.04;2106299;81;21072;-84
2021/07/22 08:09:34;;;;;;;15.98;8.85;;;;;;;18.38;73.98;100818.24;2114884;81;21675;-79
2021/07/22 08:12:36;;;;;;;14.07;8.15;;;;;;;18.44;73.65;100821.16;2107547;81;21148;-84
2021/07/22 08:15:42;;;;;;;17.20;9.80;;;;;;;18.53;73.70;100830.72;2113992;81;21592;-79
2021/07/22 08:18:48;;;;;;;16.62;9.88;;;;;;;18.62;73.73;100832.71;2109053;82;21077;-79
2021/07/22 08:21:49;;;;;;;13.45;9.40;;;;;;;18.72;73.30;100831.78;2117610;82;21067;-79
2021/07/22 08:24:51;;;;;;;10.40;8.50;;;;;;;18.77;72.84;100831.52;2118076;81;21093;-75
2021/07/22 08:27:52;;;;;;;13.18;9.23;;;;;;;18.77;72.91;100830.18;2110910;82;21523;-77
2021/07/22 08:30:54;;;;;;;14.63;9.45;;;;;;;18.88;72.74;100824.73;2113729;81;21093;-77
2021/07/22 08:33:56;;;;;;;13.88;9.20;;;;;;;18.98;72.74;100825.69;2107206;82;22387;-75
2021/07/22 08:36:57;;;;;;;18.12;9.15;;;;;;;19.06;72.46;100820.09;2109064;81;21602;-75
2021/07/22 08:40:04;;;;;;;17.60;8.68;;;;;;;19.15;72.22;100822.91;2078591;82;21078;-75
2021/07/22 08:43:06;;;;;;;17.80;9.43;;;;;;;19.23;72.08;100819.17;2117555;81;21651;-80
2021/07/22 08:46:08;;;;;;;15.95;8.70;;;;;;;19.30;71.80;100812.46;2077261;82;21727;-75
2021/07/22 08:49:10;;;;;;;13.68;8.60;;;;;;;19.34;71.35;100812.34;2108397;81;22428;-76
2021/07/22 08:52:12;;;;;;;12.60;8.68;;;;;;;19.41;71.06;100809.97;2102765;81;21128;-76
2021/07/22 08:55:14;;;;;;;14.93;8.93;;;;;;;19.50;70.86;100805.20;2110679;81;21176;-78
2021/07/22 08:58:15;;;;;;;14.63;8.20;;;;;;;19.55;70.57;100814.82;2111198;81;21119;-76
2021/07/22 09:01:18;;;;;;;13.95;8.53;;;;;;;19.60;70.50;100801.57;2104132;81;21103;-76
2021/07/22 09:04:20;;;;;;;15.75;8.35;;;;;;;19.63;69.87;100799.80;2114548;82;22644;-73
2021/07/22 09:07:21;;;;;;;14.63;8.38;;;;;;;19.70;69.95;100807.36;2119954;82;21485;-73
2021/07/22 09:10:23;;;;;;;13.62;9.13;;;;;;;19.75;69.76;100803.23;2122427;81;21598;-75
2021/07/22 09:13:25;;;;;;;17.30;8.63;;;;;;;19.85;69.43;100800.91;2125515;82;21127;-75
2021/07/22 09:16:37;;;;;;;15.85;8.18;;;;;;;19.93;69.10;100810.11;2108981;82;21446;-76
2021/07/22 09:19:41;;;;;;;11.97;7.83;;;;;;;19.97;68.49;100801.93;2131949;81;21588;-74
2021/07/22 09:22:43;;;;;;;13.53;7.45;;;;;;;20.05;68.81;100806.27;2122907;81;21068;-74
2021/07/22 09:25:48;;;;;;;11.33;7.85;;;;;;;20.15;68.67;100798.54;2094069;81;21615;-77
2021/07/22 09:29:09;;;;;;;12.73;7.37;;;;;;;20.25;68.41;100805.66;2117050;81;21070;-75
2021/07/22 09:32:14;;;;;;;17.87;7.15;;;;;;;20.34;68.06;100804.89;2121164;81;21059;-75
2021/07/22 09:35:17;;;;;;;12.90;7.47;;;;;;;20.40;67.80;100804.03;2091803;82;21173;-78
2021/07/22 09:38:20;;;;;;;13.03;7.12;;;;;;;20.42;67.98;100804.66;2094862;82;21129;-76
2021/07/22 09:41:23;;;;;;;11.10;6.85;;;;;;;20.50;67.12;100799.02;2083490;82;21046;-74
2021/07/22 09:44:36;;;;;;;10.40;7.10;;;;;;;20.62;67.16;100800.53;2111898;82;21360;-76
2021/07/22 09:47:37;;;;;;;12.60;7.15;;;;;;;20.76;67.14;100793.19;2107848;82;21097;-75
2021/07/22 09:50:44;;;;;;;9.40;7.25;;;;;;;20.85;66.67;100795.92;2118372;81;21145;-75
2021/07/22 09:53:51;;;;;;;10.85;7.05;;;;;;;20.98;66.56;100793.14;2103964;82;21057;-83
2021/07/22 09:56:54;;;;;;;19.17;8.35;;;;;;;21.15;66.05;100796.13;2103144;81;21112;-74
2021/07/22 09:59:56;;;;;;;17.35;8.45;;;;;;;21.22;65.88;100796.05;2103889;81;21098;-75
2021/07/22 10:03:00;;;;;;;11.43;7.53;;;;;;;21.33;65.67;100793.16;2108716;81;21156;-75
2021/07/22 10:06:05;;;;;;;11.48;7.33;;;;;;;21.44;65.30;100793.82;2111390;82;21011;-77
2021/07/22 10:09:07;;;;;;;13.98;7.67;;;;;;;21.57;65.35;100796.41;2113223;81;21120;-75
2021/07/22 10:12:10;;;;;;;17.67;8.23;;;;;;;21.63;64.52;100799.55;2109800;82;21093;-75
2021/07/22 10:15:12;;;;;;;9.33;6.83;;;;;;;21.66;64.05;100795.05;2114046;82;21046;-76
2021/07/22 10:18:14;;;;;;;10.75;6.40;;;;;;;21.77;64.21;100797.55;2083756;81;21022;-74
2021/07/22 10:21:16;;;;;;;10.28;6.35;;;;;;;21.81;63.24;100789.28;2108772;81;21671;-78
2021/07/22 10:24:20;;;;;;;9.48;6.92;;;;;;;21.87;63.02;100793.78;2094834;82;21352;-74
2021/07/22 10:27:24;;;;;;;13.13;6.67;;;;;;;21.97;62.70;100791.10;2101196;82;21047;-76
2021/07/22 10:30:26;;;;;;;9.63;6.50;;;;;;;22.09;62.45;100787.93;2119409;81;21300;-78
2021/07/22 10:33:28;;;;;;;14.35;7.28;;;;;;;22.17;62.12;100790.33;2121108;81;21120;-75
2021/07/22 10:36:30;;;;;;;12.45;6.12;;;;;;;22.29;61.70;100791.23;2119697;82;21117;-75
2021/07/22 10:40:09;;;;;;;13.55;6.45;;;;;;;22.40;61.33;100784.77;2123084;81;21002;-74
2021/07/22 10:43:38;;;;;;;9.23;6.87;;;;;;;22.53;61.09;100777.83;2124705;81;22512;-74
2021/07/22 10:46:56;;;;;;;11.48;7.00;;;;;;;22.57;60.28;100780.36;2114406;81;21139;-77
2021/07/22 10:49:58;;;;;;;10.03;6.60;;;;;;;22.50;59.74;100773.70;2098049;81;21085;-78
2021/07/22 10:53:04;;;;;;;9.58;6.78;;;;;;;22.48;59.08;100765.52;2115048;81;21916;-76
2021/07/22 10:56:11;;;;;;;9.80;6.75;;;;;;;22.47;57.96;100763.86;2098424;82;21092;-77
2021/07/22 10:59:13;;;;;;;9.90;6.40;;;;;;;22.25;58.77;100769.78;2083386;82;21125;-82
2021/07/22 11:02:37;;;;;;;11.20;6.58;;;;;;;22.38;58.94;100768.26;2122203;82;21089;-84
2021/07/22 11:05:53;;;;;;;9.93;6.03;;;;;;;22.71;59.17;100768.29;2121473;81;21597;-77
2021/07/22 11:09:08;;;;;;;6.97;5.75;;;;;;;23.05;58.53;100764.56;2127444;81;21125;-78
2021/07/22 11:12:35;;;;;;;7.58;5.75;;;;;;;23.49;58.47;100759.64;2117403;81;21104;-76
2021/07/22 11:15:47;;;;;;;6.00;5.22;;;;;;;23.99;57.81;100759.63;2122531;81;21159;-75
2021/07/22 11:18:57;;;;;;;11.30;6.15;;;;;;;24.18;56.61;100755.69;2119766;82;21145;-76
2021/07/22 11:21:58;;;;;;;10.03;5.55;;;;;;;24.15;55.56;100752.09;2112096;81;21058;-79
2021/07/22 11:25:03;;;;;;;10.82;5.80;;;;;;;24.23;54.54;100746.84;2118702;81;21592;-76
2021/07/22 11:28:05;;;;;;;7.10;5.92;;;;;;;24.33;53.70;100745.69;2100493;81;21132;-79
2021/07/22 11:31:10;;;;;;;11.18;6.37;;;;;;;24.35;54.23;100742.17;2125801;81;21095;-79
2021/07/22 11:34:14;;;;;;;9.25;6.03;;;;;;;24.52;53.60;100741.70;2109140;81;21520;-85
2021/07/22 11:37:18;;;;;;;9.33;5.62;;;;;;;24.69;52.89;100740.37;2108439;82;21009;-76
2021/07/22 11:40:24;;;;;;;6.80;5.67;;;;;;;24.90;51.98;100737.48;2104213;82;21601;-82
2021/07/22 11:43:44;;;;;;;12.35;6.25;;;;;;;24.87;52.17;100730.38;2097730;82;21109;-80
2021/07/22 11:46:46;;;;;;;7.30;5.55;;;;;;;25.10;51.90;100727.47;2114432;81;21104;-75
2021/07/22 11:49:48;;;;;;;6.58;5.80;;;;;;;25.22;50.66;100728.76;2105481;82;21097;-75
2021/07/22 11:52:49;;;;;;;9.33;5.08;;;;;;;25.35;50.44;100727.06;2104790;82;21131;-75
2021/07/22 11:55:51;;;;;;;12.35;5.28;;;;;;;25.34;49.80;100721.35;2118649;81;21573;-76
2021/07/22 11:58:53;;;;;;;7.60;5.55;;;;;;;25.34;49.79;100721.35;2098152;82;21627;-80
2021/07/22 12:01:56;;;;;;;9.18;5.62;;;;;;;25.34;49.81;100724.06;2115341;81;21165;-79
2021/07/22 12:04:58;;;;;;;8.78;6.20;;;;;;;25.40;49.48;100719.53;2084160;82;21034;-75
2021/07/22 12:08:17;;;;;;;8.45;5.25;;;;;;;25.39;48.67;100713.25;2111989;81;21631;-76
2021/07/22 12:11:19;;;;;;;7.60;4.97;;;;;;;25.39;48.72;100716.50;2117074;81;21108;-75
2021/07/22 12:14:31;;;;;;;7.37;5.45;;;;;;;25.37;47.74;100717.28;2115896;82;21603;-87
2021/07/22 12:17:33;;;;;;;9.18;5.70;;;;;;;25.34;47.62;100709.64;2066958;83;21057;-80
2021/07/22 12:20:36;;;;;;;5.90;5.15;;;;;;;25.33;47.81;100710.72;2058184;83;21629;-76
2021/07/22 12:23:37;;;;;;;9.10;5.92;;;;;;;25.37;47.62;100709.98;2112266;81;21203;-79
2021/07/22 12:26:39;;;;;;;8.00;5.75;;;;;;;25.26;47.43;100709.02;2099499;82;21166;-76
2021/07/22 12:29:46;;;;;;;10.05;6.10;;;;;;;25.29;47.31;100709.05;2125219;81;21595;-80
2021/07/22 12:32:54;;;;;;;10.08;5.65;;;;;;;25.16;47.38;100706.68;2117614;81;21568;-80
2021/07/22 12:35:56;;;;;;;7.05;5.55;;;;;;;25.15;47.86;100703.69;2109459;81;21101;-78
2021/07/22 12:39:25;;;;;;;9.53;5.85;;;;;;;25.13;47.77;100700.36;2124635;81;21603;-78
2021/07/22 12:42:24;;;;;;;8.03;6.20;;;;;;;25.06;48.29;100703.27;2107387;81;21589;-77
2021/07/22 12:45:26;;;;;;;8.45;5.83;;;;;;;25.06;47.95;100699.19;2111311;81;21077;-77
2021/07/22 12:48:39;;;;;;;9.23;6.00;;;;;;;25.00;47.72;100698.29;2066645;82;21076;-84
2021/07/22 12:51:41;;;;;;;8.63;6.40;;;;;;;24.77;47.32;100694.37;2101331;81;21045;-79
2021/07/22 12:54:44;;;;;;;8.58;6.12;;;;;;;24.66;47.80;100698.80;2124489;81;21013;-76
2021/07/22 12:57:46;;;;;;;6.97;5.37;;;;;;;24.70;47.93;100692.38;2106270;82;21148;-76
2021/07/22 13:00:48;;;;;;;8.20;5.30;;;;;;;24.55;47.97;100692.41;2102183;81;21034;-77
2021/07/22 13:03:55;;;;;;;7.40;6.25;;;;;;;24.51;48.70;100691.78;2109512;81;22226;-79
2021/07/22 13:06:56;;;;;;;6.20;5.60;;;;;;;24.45;48.33;100688.70;2098849;82;21157;-76
2021/07/22 13:09:58;;;;;;;9.38;6.20;;;;;;;24.31;48.42;100682.73;2114601;81;21104;-76
2021/07/22 13:13:00;;;;;;;7.20;6.42;;;;;;;24.25;48.17;100689.13;2113153;81;21028;-77
2021/07/22 13:16:01;;;;;;;7.85;5.85;;;;;;;24.19;48.61;100677.87;2113785;81;21050;-79
2021/07/22 13:19:03;;;;;;;9.10;6.35;;;;;;;24.08;49.01;100678.25;2108541;81;21494;-77
2021/07/22 13:22:05;;;;;;;7.67;5.85;;;;;;;24.09;49.51;100673.92;2098163;81;21162;-80
2021/07/22 13:25:09;;;;;;;9.28;5.67;;;;;;;24.13;48.74;100667.47;2109018;81;21018;-77
2021/07/22 13:28:10;;;;;;;9.03;5.70;;;;;;;23.79;48.41;100663.84;2103703;81;21070;-67
2021/07/22 13:31:12;;;;;;;8.65;5.95;;;;;;;23.50;49.17;100670.02;2115694;81;21199;-79
2021/07/22 13:34:14;;;;;;;9.85;6.40;;;;;;;23.38;49.13;100662.46;2101090;81;21034;-87
2021/07/22 13:37:15;;;;;;;7.97;5.78;;;;;;;23.48;49.68;100669.45;2115094;81;21074;-81
2021/07/22 13:40:21;;;;;;;9.75;6.33;;;;;;;23.54;49.65;100662.77;2107084;81;21165;-77
2021/07/22 13:43:20;;;;;;;7.25;6.50;;;;;;;23.54;50.16;100667.68;2076389;83;21141;-76
2021/07/22 13:46:22;;;;;;;9.90;5.75;;;;;;;23.54;50.40;100662.77;2036645;84;21120;-76
2021/07/22 13:49:26;;;;;;;10.10;6.95;;;;;;;23.44;50.62;100657.98;2068083;83;21200;-74
2021/07/22 13:52:27;;;;;;;10.93;6.72;;;;;;;23.41;50.77;100658.45;2083743;83;22030;-75
2021/07/22 13:55:29;;;;;;;10.38;6.10;;;;;;;23.38;50.27;100658.40;2114692;81;21077;-75
2021/07/22 13:58:30;;;;;;;7.17;6.42;;;;;;;23.42;50.88;100647.91;2105772;82;21635;-77
2021/07/22 14:01:32;;;;;;;7.33;6.12;;;;;;;23.48;50.62;100646.44;2099954;82;21108;-78
2021/07/22 14:04:36;;;;;;;11.65;7.12;;;;;;;23.51;50.75;100650.56;2099989;81;21076;-84